Hlavní strana
METAR-TAF:

METAR-TAF

Letiště :

Östersund-Frösön, Švédsko

zeměpisná šířka: 63-11N, zeměpisná délka: 014-30E, výška: 376 m

Aktuální stav počasí

Zpráva byla vytvořena před 32 minutami, v 03:20 UTC
Západní vítr 7 kt
Teplota -1°C
Vlhkost vzduchu 69%
Tlak 985 hPa
Viditelnost 10 km a více

METAR: ESNZ 020320Z AUTO 26007KT 9999 NCD M01/M06 Q0985

Čas: 05:52 (03:52 UTC)

Předpověď počasí

Zpráva byla vytvořena před 22 minutami, v 03:30 UTC
Předpověď platná od 02 v 04 UTC do 02 v 12 UTC
Jihojihozápadní vítr 8 kt
Viditelnost 10 km a více
Polojasno ve výšce 1600 ft
Zataženo ve výšce 3000 ft
Pravděpodobnost 40%
od 02 v 04 UTC do 02 v 10 UTC
Viditelnost: 3000 m
slabé sněžení
Dočasný
od 02 v 10 UTC do 02 v 12 UTC
Viditelnost: 2000 m
ve výšce 1200 ft
sníh

TAF: ESNZ 020330Z 0204/0212 20008KT 9999 SCT016 OVC030 PROB40 0204/0210 3000 -SN TEMPO 0210/0212 2000 SN VV012

Stav a předpovědi počasí z více než 4 000 letišť (zprávy METAR a TAF).

Červené a žluté tečky na mapě představují dostupné meteorologické stanice.

Když kurzor umístíte na tečku, zobrazí se název stanice.

Pak kliknutím zobrazíte stav a předpověď počasí.

Chcete-li změnit mapu, kliknutím na zelené tlačítko se znaménkem +mapu přiblížíte, kliknutím na zelené tlačítko se znaménkem – mapu oddálíte a kliknutím na zelené šipky přejdete na sousední mapy.


METAR-TAF: